createdAt,value
2022-07-26T00:00:22.051Z,41.97
2022-07-26T00:03:42.371Z,42.15
2022-07-26T00:06:46.564Z,42.25
2022-07-26T00:09:50.577Z,42.75
2022-07-26T00:12:54.814Z,43.02
2022-07-26T00:15:59.231Z,43.40
2022-07-26T00:19:04.081Z,43.29
2022-07-26T00:22:26.602Z,43.57
2022-07-26T00:25:30.872Z,43.41
2022-07-26T00:28:35.032Z,43.55
2022-07-26T00:31:40.941Z,43.79
2022-07-26T00:34:53.269Z,44.22
2022-07-26T00:37:57.409Z,44.10
2022-07-26T00:41:01.832Z,44.37
2022-07-26T00:44:06.467Z,44.70
2022-07-26T00:47:10.867Z,44.75
2022-07-26T00:50:17.066Z,45.13
2022-07-26T00:53:22.187Z,45.33
2022-07-26T00:56:27.934Z,45.95
2022-07-26T00:59:32.075Z,45.92
2022-07-26T01:02:36.216Z,46.14
2022-07-26T01:05:40.190Z,46.33
2022-07-26T01:08:44.110Z,46.39
2022-07-26T01:11:50.858Z,49.05
2022-07-26T01:14:54.920Z,49.62
2022-07-26T01:17:58.944Z,50.40
2022-07-26T01:21:13.239Z,51.09
2022-07-26T01:24:18.818Z,50.21
2022-07-26T01:27:23.144Z,50.79
2022-07-26T01:30:29.626Z,51.04
2022-07-26T01:33:35.150Z,52.30
2022-07-26T01:36:39.631Z,52.64
2022-07-26T01:39:45.225Z,52.13
2022-07-26T01:42:49.341Z,52.57
2022-07-26T01:45:53.721Z,53.78
2022-07-26T01:48:58.161Z,55.29
2022-07-26T01:52:02.107Z,55.30
2022-07-26T01:55:06.696Z,57.20
2022-07-26T01:58:10.985Z,57.71
2022-07-26T02:01:15.049Z,62.47
2022-07-26T02:04:37.622Z,62.86
2022-07-26T02:07:44.523Z,65.11
2022-07-26T02:11:03.434Z,65.38
2022-07-26T02:14:08.228Z,67.72
2022-07-26T02:17:12.915Z,67.82
2022-07-26T02:20:17.162Z,69.56
2022-07-26T02:23:21.638Z,69.45
2022-07-26T02:26:25.686Z,70.61
2022-07-26T02:29:30.650Z,71.46
2022-07-26T02:32:34.572Z,71.89
2022-07-26T02:35:39.168Z,73.10
2022-07-26T02:38:43.225Z,72.54
2022-07-26T02:41:47.430Z,71.89
2022-07-26T02:44:54.105Z,74.19
2022-07-26T02:47:58.576Z,73.60
2022-07-26T02:51:02.794Z,72.29
2022-07-26T02:54:07.826Z,72.04
2022-07-26T02:57:14.135Z,72.53
2022-07-26T03:00:20.744Z,70.95
2022-07-26T03:03:25.998Z,70.98
2022-07-26T03:06:29.963Z,68.95
2022-07-26T03:09:33.843Z,71.06
2022-07-26T03:12:38.127Z,71.41
2022-07-26T03:15:42.445Z,72.01
2022-07-26T03:18:46.381Z,72.20
2022-07-26T03:21:50.458Z,73.06
2022-07-26T03:24:54.379Z,70.37
2022-07-26T03:27:58.232Z,72.31
2022-07-26T03:31:03.204Z,71.78
2022-07-26T03:34:07.762Z,74.32
2022-07-26T03:37:14.959Z,74.67
2022-07-26T03:40:19.580Z,76.86
2022-07-26T03:43:23.665Z,77.51
2022-07-26T03:46:27.927Z,78.59
2022-07-26T03:49:32.211Z,78.29
2022-07-26T03:52:36.355Z,79.48
2022-07-26T03:55:58.692Z,78.25
2022-07-26T03:59:05.029Z,80.78
2022-07-26T04:02:09.093Z,81.25
2022-07-26T04:05:15.721Z,80.11
2022-07-26T04:08:19.914Z,79.74
2022-07-26T04:11:28.266Z,79.76
2022-07-26T04:14:32.880Z,79.91
2022-07-26T04:17:41.110Z,78.86
2022-07-26T04:20:45.042Z,79.39
2022-07-26T04:23:51.961Z,80.03
2022-07-26T04:26:56.275Z,79.69
2022-07-26T04:30:00.762Z,79.87
2022-07-26T04:33:05.237Z,79.96
2022-07-26T04:36:11.427Z,79.83
2022-07-26T04:39:15.542Z,78.84
2022-07-26T04:42:19.856Z,78.06
2022-07-26T04:45:25.073Z,77.65
2022-07-26T04:48:29.255Z,77.79
2022-07-26T04:51:33.488Z,78.40
2022-07-26T04:54:37.472Z,78.10
2022-07-26T04:57:41.877Z,78.57
2022-07-26T05:04:12.807Z,78.30
2022-07-26T05:07:16.945Z,78.23
2022-07-26T05:10:22.578Z,77.82
2022-07-26T05:13:29.918Z,76.94
2022-07-26T05:16:35.140Z,76.30
2022-07-26T05:19:48.854Z,75.97
2022-07-26T05:22:53.218Z,75.06
2022-07-26T05:25:57.762Z,74.88
2022-07-26T05:29:01.787Z,75.17
2022-07-26T05:32:06.973Z,74.73
2022-07-26T05:35:11.149Z,73.45
2022-07-26T05:38:15.140Z,73.36
2022-07-26T05:41:19.342Z,73.03
2022-07-26T05:44:24.009Z,72.86
2022-07-26T05:47:30.756Z,72.21
2022-07-26T05:50:34.863Z,71.47
2022-07-26T05:53:39.563Z,70.67
2022-07-26T05:56:43.973Z,69.79
2022-07-26T05:59:48.075Z,68.92
2022-07-26T06:02:52.165Z,68.24
2022-07-26T06:05:57.568Z,67.72
2022-07-26T06:09:02.076Z,66.84
2022-07-26T06:12:07.424Z,65.72
2022-07-26T06:15:14.671Z,64.42
2022-07-26T06:18:20.553Z,63.67
2022-07-26T06:21:24.984Z,63.56
2022-07-26T06:24:32.200Z,63.23
2022-07-26T06:27:36.338Z,63.52
2022-07-26T06:30:40.529Z,62.73
2022-07-26T06:33:45.576Z,63.28
2022-07-26T06:36:50.594Z,63.43
2022-07-26T06:39:54.737Z,63.80
2022-07-26T06:43:02.684Z,63.77
2022-07-26T06:46:09.035Z,64.35
2022-07-26T06:49:21.845Z,64.60
2022-07-26T06:52:26.685Z,64.16
2022-07-26T06:55:30.763Z,62.90
2022-07-26T06:58:35.375Z,61.57
2022-07-26T07:01:59.785Z,60.98
2022-07-26T07:05:04.812Z,60.26
2022-07-26T07:08:09.268Z,59.35
2022-07-26T07:11:14.590Z,61.15
2022-07-26T07:14:22.116Z,62.44
2022-07-26T07:17:32.070Z,63.54
2022-07-26T07:20:36.592Z,61.76
2022-07-26T07:23:40.815Z,60.84
2022-07-26T07:26:45.341Z,60.11
2022-07-26T07:29:49.429Z,58.79
2022-07-26T07:32:55.157Z,60.14
2022-07-26T07:36:00.780Z,60.62
2022-07-26T07:39:07.094Z,60.99
2022-07-26T07:42:12.875Z,61.08
2022-07-26T07:45:28.296Z,59.53
2022-07-26T07:48:32.616Z,60.67
2022-07-26T07:51:36.965Z,59.44
2022-07-26T07:54:42.171Z,59.51
2022-07-26T07:57:46.479Z,58.36
2022-07-26T08:00:51.104Z,56.75
2022-07-26T08:03:57.035Z,57.28
2022-07-26T08:07:02.564Z,58.16
2022-07-26T08:10:08.283Z,57.63
2022-07-26T08:13:12.583Z,55.22
2022-07-26T08:16:16.790Z,54.75
2022-07-26T08:19:23.407Z,53.62
2022-07-26T08:22:28.983Z,54.08
2022-07-26T08:25:33.376Z,55.98
2022-07-26T08:28:48.358Z,54.83
2022-07-26T08:31:53.012Z,54.10
2022-07-26T08:34:57.295Z,53.50
2022-07-26T08:38:21.215Z,54.40
2022-07-26T08:41:26.205Z,52.50
2022-07-26T08:44:30.307Z,53.80
2022-07-26T08:47:37.532Z,53.95
2022-07-26T08:50:44.680Z,53.82
2022-07-26T08:53:49.245Z,53.21
2022-07-26T08:56:54.154Z,52.86
2022-07-26T09:00:19.179Z,52.16
2022-07-26T09:03:26.545Z,51.34
2022-07-26T09:06:30.786Z,51.57
2022-07-26T09:09:38.193Z,48.86
2022-07-26T09:12:45.470Z,48.05
2022-07-26T09:16:08.248Z,49.17
2022-07-26T09:19:21.804Z,49.97
2022-07-26T09:22:26.370Z,51.09
2022-07-26T09:25:34.509Z,51.02
2022-07-26T09:28:44.972Z,49.81
2022-07-26T09:31:49.612Z,48.95
2022-07-26T09:35:45.770Z,48.64
2022-07-26T09:38:45.549Z,45.93
2022-07-26T09:42:04.801Z,47.37
2022-07-26T09:45:18.560Z,47.18
2022-07-26T09:48:36.573Z,47.71
2022-07-26T09:51:47.921Z,46.69
2022-07-26T09:54:52.044Z,46.57
2022-07-26T09:57:57.307Z,45.94
2022-07-26T10:01:02.583Z,45.44
2022-07-26T10:04:07.236Z,46.03
2022-07-26T10:07:11.815Z,45.87
2022-07-26T10:10:22.571Z,45.72
2022-07-26T10:13:29.248Z,44.01
2022-07-26T10:16:33.894Z,44.63
2022-07-26T10:19:45.529Z,44.32
2022-07-26T10:22:51.478Z,44.21
2022-07-26T10:25:55.923Z,43.10
2022-07-26T10:29:26.102Z,44.82
2022-07-26T10:32:32.786Z,44.97
2022-07-26T10:35:41.336Z,45.97
2022-07-26T10:38:59.847Z,43.49
2022-07-26T10:42:06.421Z,40.57
2022-07-26T10:45:23.239Z,40.48
2022-07-26T10:48:28.712Z,42.17
2022-07-26T10:51:35.209Z,43.01
2022-07-26T10:55:15.026Z,43.07
2022-07-26T10:58:20.475Z,42.92
2022-07-26T11:01:33.994Z,41.98
2022-07-26T11:04:38.276Z,39.46
2022-07-26T11:07:57.984Z,40.97
2022-07-26T11:11:02.342Z,39.55
2022-07-26T11:14:11.087Z,38.84
2022-07-26T11:17:26.342Z,39.59
2022-07-26T11:20:31.414Z,40.07
2022-07-26T11:23:36.566Z,38.29
2022-07-26T11:26:44.285Z,38.24
2022-07-26T11:29:51.315Z,38.99
2022-07-26T11:32:58.282Z,38.18
2022-07-26T11:36:07.765Z,38.82
2022-07-26T11:39:20.581Z,39.48
2022-07-26T11:42:26.577Z,40.05
2022-07-26T11:45:34.329Z,41.62
2022-07-26T11:48:46.263Z,42.08
2022-07-26T11:51:52.223Z,42.41
2022-07-26T11:55:01.146Z,41.81
2022-07-26T11:58:06.994Z,42.16
2022-07-26T12:01:13.110Z,40.89
2022-07-26T12:04:22.864Z,40.80
2022-07-26T12:07:27.338Z,40.36
2022-07-26T12:10:31.799Z,40.02
2022-07-26T12:13:55.688Z,40.43
2022-07-26T12:17:12.075Z,40.25
2022-07-26T12:20:18.417Z,39.38
2022-07-26T12:23:22.681Z,40.19
2022-07-26T12:26:30.288Z,38.67
2022-07-26T12:29:36.000Z,39.73
2022-07-26T12:32:43.494Z,39.96
2022-07-26T12:35:47.479Z,39.92
2022-07-26T12:38:52.217Z,40.51
2022-07-26T12:41:57.911Z,41.11
2022-07-26T12:45:03.798Z,41.59
2022-07-26T12:48:11.461Z,42.19
2022-07-26T12:51:17.965Z,42.18
2022-07-26T12:54:25.290Z,40.69
2022-07-26T12:57:33.443Z,38.45
2022-07-26T13:00:40.946Z,38.85
2022-07-26T13:03:44.920Z,39.49
2022-07-26T13:06:49.052Z,39.37
2022-07-26T13:10:14.280Z,38.34
2022-07-26T13:13:17.202Z,38.74
2022-07-26T13:16:21.182Z,37.12
2022-07-26T13:19:26.522Z,36.16
2022-07-26T13:22:30.883Z,35.97
2022-07-26T13:25:39.928Z,35.88
2022-07-26T13:28:44.981Z,35.33
2022-07-26T13:31:55.698Z,35.43
2022-07-26T13:35:02.638Z,34.85
2022-07-26T13:38:06.861Z,35.32
2022-07-26T13:41:16.105Z,35.20
2022-07-26T13:44:22.221Z,36.06
2022-07-26T13:47:26.240Z,35.03
2022-07-26T13:50:31.008Z,36.32
2022-07-26T13:53:37.544Z,35.79
2022-07-26T13:57:01.108Z,37.04
2022-07-26T14:00:07.113Z,37.48
2022-07-26T14:03:11.208Z,36.26
2022-07-26T14:06:16.134Z,35.71
2022-07-26T14:09:23.347Z,36.27
2022-07-26T14:12:30.493Z,37.44
2022-07-26T14:15:36.038Z,36.20
2022-07-26T14:18:40.811Z,36.72
2022-07-26T14:21:59.706Z,36.14
2022-07-26T14:25:08.261Z,36.90
2022-07-26T14:28:12.653Z,36.89
2022-07-26T14:31:19.915Z,36.96
2022-07-26T14:34:24.351Z,37.19
2022-07-26T14:37:43.135Z,37.48
2022-07-26T14:40:50.591Z,37.43
2022-07-26T14:43:56.100Z,37.83
2022-07-26T14:47:02.539Z,38.21
2022-07-26T14:50:13.057Z,38.52
2022-07-26T14:53:17.634Z,39.09
2022-07-26T14:56:24.352Z,39.91
2022-07-26T14:59:29.273Z,40.25
2022-07-26T15:02:34.266Z,40.72
2022-07-26T15:05:40.471Z,41.12
2022-07-26T15:08:44.534Z,41.51
2022-07-26T15:11:49.258Z,41.22
2022-07-26T15:14:53.518Z,41.15
2022-07-26T15:17:59.172Z,40.79
2022-07-26T15:21:03.958Z,40.84
2022-07-26T15:24:11.917Z,41.12
2022-07-26T15:27:16.335Z,40.69
2022-07-26T15:30:20.213Z,41.15
2022-07-26T15:33:24.411Z,41.28
2022-07-26T15:36:38.314Z,40.88
2022-07-26T15:39:42.371Z,40.78
2022-07-26T15:42:48.544Z,40.21
2022-07-26T15:45:54.845Z,40.01
2022-07-26T15:48:59.417Z,38.62
2022-07-26T15:52:04.194Z,38.20
2022-07-26T15:55:10.878Z,39.02
2022-07-26T15:58:15.073Z,39.67
2022-07-26T16:01:19.176Z,40.24
2022-07-26T16:04:25.079Z,40.40
2022-07-26T16:07:30.818Z,39.38
2022-07-26T16:10:34.989Z,38.79
2022-07-26T16:13:39.596Z,38.42
2022-07-26T16:16:43.797Z,39.19
2022-07-26T16:19:51.106Z,40.03
2022-07-26T16:22:55.292Z,41.33
2022-07-26T16:26:00.960Z,42.79
2022-07-26T16:29:05.998Z,42.84
2022-07-26T16:32:11.221Z,43.05
2022-07-26T16:35:15.377Z,43.81
2022-07-26T16:38:22.385Z,46.21
2022-07-26T16:41:29.675Z,47.98
2022-07-26T16:44:35.540Z,49.50
2022-07-26T16:47:39.818Z,50.07
2022-07-26T16:50:43.823Z,50.54
2022-07-26T16:53:50.749Z,51.08
2022-07-26T16:56:54.856Z,52.23
2022-07-26T16:59:59.080Z,53.21
2022-07-26T17:03:03.046Z,56.36
2022-07-26T17:06:07.163Z,57.33
2022-07-26T17:09:15.206Z,58.32
2022-07-26T17:12:19.617Z,58.85
2022-07-26T17:15:24.233Z,59.35
2022-07-26T17:18:28.730Z,60.55
2022-07-26T17:21:32.798Z,61.81
2022-07-26T17:24:36.804Z,62.21
2022-07-26T17:27:41.156Z,61.73
2022-07-26T17:30:45.312Z,59.73
2022-07-26T17:33:50.007Z,58.71
2022-07-26T17:36:58.898Z,58.95
2022-07-26T17:40:04.442Z,60.26
2022-07-26T17:43:12.329Z,60.73
2022-07-26T17:46:19.287Z,61.34
2022-07-26T17:49:23.794Z,61.52
2022-07-26T17:52:27.958Z,61.91
2022-07-26T17:55:33.123Z,62.36
2022-07-26T17:58:40.000Z,61.94
2022-07-26T18:01:50.748Z,59.63
2022-07-26T18:04:58.636Z,58.60
2022-07-26T18:08:03.202Z,59.57
2022-07-26T18:11:09.252Z,60.40
2022-07-26T18:14:13.333Z,61.08
2022-07-26T18:17:17.499Z,61.64
2022-07-26T18:20:21.601Z,62.75
2022-07-26T18:23:28.393Z,62.35
2022-07-26T18:26:33.046Z,60.38
2022-07-26T18:29:37.156Z,61.12
2022-07-26T18:32:41.060Z,59.43
2022-07-26T18:35:45.282Z,58.72
2022-07-26T18:38:49.465Z,60.72
2022-07-26T18:41:54.228Z,62.96
2022-07-26T18:44:58.602Z,63.48
2022-07-26T18:48:02.609Z,60.99
2022-07-26T18:51:06.848Z,60.61
2022-07-26T18:54:11.706Z,59.26
2022-07-26T18:57:15.666Z,60.46
2022-07-26T19:00:22.227Z,62.01
2022-07-26T19:03:26.354Z,63.37
2022-07-26T19:06:30.703Z,61.30
2022-07-26T19:09:34.815Z,62.33
2022-07-26T19:12:39.345Z,62.76
2022-07-26T19:15:43.702Z,62.65
2022-07-26T19:18:50.821Z,61.62
2022-07-26T19:21:57.202Z,63.49
2022-07-26T19:25:01.830Z,62.66
2022-07-26T19:28:09.128Z,63.68
2022-07-26T19:31:13.391Z,63.85
2022-07-26T19:34:17.328Z,63.97
2022-07-26T19:37:21.184Z,63.12
2022-07-26T19:40:25.278Z,64.37
2022-07-26T19:43:29.589Z,64.78
2022-07-26T19:46:33.653Z,64.10
2022-07-26T19:49:37.856Z,63.74
2022-07-26T19:52:41.984Z,66.01
2022-07-26T19:55:46.105Z,65.08
2022-07-26T19:58:50.238Z,64.94
2022-07-26T20:01:54.799Z,64.80
2022-07-26T20:05:02.801Z,64.37
2022-07-26T20:08:07.297Z,64.13
2022-07-26T20:11:11.570Z,64.80
2022-07-26T20:14:15.529Z,65.23
2022-07-26T20:17:19.572Z,63.55
2022-07-26T20:20:24.003Z,62.88
2022-07-26T20:23:28.964Z,63.08
2022-07-26T20:26:38.836Z,63.40
2022-07-26T20:29:42.781Z,62.04
2022-07-26T20:32:47.086Z,64.12
2022-07-26T20:35:54.844Z,62.64
2022-07-26T20:39:00.548Z,63.22
2022-07-26T20:42:06.181Z,64.91
2022-07-26T20:45:13.748Z,62.00
2022-07-26T20:48:17.783Z,60.90
2022-07-26T20:51:23.143Z,61.23
2022-07-26T20:54:27.091Z,65.28
2022-07-26T20:57:31.061Z,65.59
2022-07-26T21:00:35.101Z,65.21
2022-07-26T21:03:39.360Z,64.74
2022-07-26T21:06:43.736Z,65.27
2022-07-26T21:09:47.669Z,63.96
2022-07-26T21:12:56.538Z,64.05
2022-07-26T21:16:00.695Z,67.33
2022-07-26T21:19:05.460Z,67.48
2022-07-26T21:22:09.710Z,65.91
2022-07-26T21:25:13.834Z,65.30
2022-07-26T21:28:17.981Z,67.62
2022-07-26T21:31:22.114Z,67.28
2022-07-26T21:34:28.532Z,64.02
2022-07-26T21:37:32.454Z,64.25
2022-07-26T21:40:36.707Z,67.05
2022-07-26T21:43:41.297Z,62.81
2022-07-26T21:46:47.919Z,67.20
2022-07-26T21:49:54.655Z,68.01
2022-07-26T21:52:58.588Z,68.29
2022-07-26T21:56:05.076Z,67.97
2022-07-26T21:59:09.448Z,69.27
2022-07-26T22:02:13.838Z,69.10
2022-07-26T22:05:37.327Z,69.29
2022-07-26T22:08:44.023Z,69.28
2022-07-26T22:11:48.053Z,65.71
2022-07-26T22:14:52.195Z,68.91
2022-07-26T22:17:59.435Z,68.64
2022-07-26T22:21:03.731Z,68.62
2022-07-26T22:24:08.415Z,68.29
2022-07-26T22:27:12.599Z,67.83
2022-07-26T22:30:17.772Z,68.10
2022-07-26T22:33:23.067Z,64.60
2022-07-26T22:36:27.213Z,66.05
2022-07-26T22:39:31.341Z,63.73
2022-07-26T22:42:35.411Z,67.53
2022-07-26T22:45:39.971Z,66.32
2022-07-26T22:48:48.223Z,67.22
2022-07-26T22:51:52.307Z,65.68
2022-07-26T22:54:56.505Z,63.69
2022-07-26T22:58:02.197Z,68.22
2022-07-26T23:01:06.181Z,66.46
2022-07-26T23:04:10.350Z,65.76
2022-07-26T23:07:16.871Z,68.02
2022-07-26T23:10:24.049Z,68.15
2022-07-26T23:13:28.331Z,67.84
2022-07-26T23:16:32.382Z,69.66
2022-07-26T23:19:36.787Z,70.69
2022-07-26T23:22:42.955Z,70.78
2022-07-26T23:25:46.858Z,70.37
2022-07-26T23:28:53.769Z,69.38
2022-07-26T23:31:58.161Z,69.13
2022-07-26T23:35:02.155Z,68.43
2022-07-26T23:38:06.143Z,67.89
2022-07-26T23:41:10.623Z,67.78
2022-07-26T23:44:14.611Z,67.93
2022-07-26T23:47:18.674Z,67.69
2022-07-26T23:50:24.087Z,67.52
2022-07-26T23:53:30.516Z,67.41
2022-07-26T23:56:34.925Z,67.16
2022-07-26T23:59:39.009Z,67.05
